Nebel !!

Letzte 24h
Datum & Zeit Temp. Luft-
feuchte
Wind Nieder-
schlag
Luftdruck Tendenz
IN OUT IN OUT Richtung Min. Max.
2021.03.02 02:56 4.8 °C -0.6 °C 62% 94% S 180 ° 0 km/h 0 km/h 0.0 mm 1034.30 hPa langsam fallend
03:56 4.6 °C -0.4 °C 63% 94% WNW 300 ° 3 km/h 9 km/h 0.0 mm 1034.00 hPa langsam fallend
04:56 4.8 °C -0.9 °C 64% 95% NW 315 ° 0 km/h 4 km/h 0.0 mm 1034.20 hPa langsam fallend
05:56 4.9 °C -1.1 °C 65% 96% S 180 ° 0 km/h 0 km/h 0.0 mm 1034.20 hPa gleichbleibend
06:56 4.9 °C -1.0 °C 65% 96% NW 321 ° 2 km/h 7 km/h 0.0 mm 1034.10 hPa langsam steigend
07:56 4.9 °C -1.2 °C 66% 97% NNW 326 ° 1 km/h 6 km/h 0.0 mm 1034.70 hPa langsam steigend
08:56 4.9 °C -1.0 °C 66% 98% S 180 ° 0 km/h 0 km/h 0.0 mm 1034.90 hPa langsam steigend
09:56 5.0 °C -0.5 °C 66% 99% S 180 ° 0 km/h 0 km/h 0.0 mm 1034.90 hPa langsam steigend
10:56 5.2 °C 0.1 °C 67% 99% S 180 ° 0 km/h 0 km/h 0.0 mm 1035.20 hPa langsam steigend
11:56 5.5 °C 1.0 °C 69% 98% NW 319 ° 3 km/h 9 km/h 0.0 mm 1035.10 hPa langsam steigend
12:56 6.0 °C 2.3 °C 69% 97% NW 319 ° 5 km/h 9 km/h 0.0 mm 1034.50 hPa langsam fallend
13:56 6.7 °C 3.2 °C 70% 99% NNW 346 ° 4 km/h 9 km/h 0.0 mm 1034.10 hPa langsam fallend
14:56 7.1 °C 5.3 °C 68% 99% NW 324 ° 3 km/h 9 km/h 0.0 mm 1033.90 hPa langsam fallend
15:56 8.1 °C 5.7 °C 69% 85% NW 311 ° 5 km/h 9 km/h 0.0 mm 1033.80 hPa langsam fallend
16:56 8.5 °C 5.1 °C 71% 84% W 276 ° 4 km/h 7 km/h 0.0 mm 1033.50 hPa langsam fallend
17:56 8.1 °C 4.2 °C 67% 86% WSW 256 ° 3 km/h 5 km/h 0.0 mm 1033.50 hPa langsam fallend
18:56 7.1 °C 2.5 °C 65% 85% S 180 ° 0 km/h 5 km/h 0.0 mm 1033.40 hPa langsam fallend
19:56 6.8 °C 1.8 °C 65% 89% S 180 ° 1 km/h 6 km/h 0.0 mm 1033.40 hPa gleichbleibend
20:56 6.2 °C 1.5 °C 64% 91% S 191 ° 2 km/h 6 km/h 0.0 mm 1033.50 hPa gleichbleibend
21:56 5.8 °C 1.1 °C 65% 92% SSW 196 ° 2 km/h 7 km/h 0.0 mm 1033.40 hPa gleichbleibend
22:56 5.5 °C 0.2 °C 65% 93% SSW 193 ° 2 km/h 6 km/h 0.0 mm 1033.30 hPa langsam fallend
23:56 5.3 °C -0.1 °C 65% 95% S 175 ° 2 km/h 6 km/h 0.0 mm 1032.90 hPa langsam fallend
2021.03.03 00:56 5.1 °C 0.3 °C 65% 96% S 180 ° 2 km/h 5 km/h 0.0 mm 1032.70 hPa langsam fallend
01:56 5.0 °C 0.0 °C 65% 97% S 183 ° 1 km/h 6 km/h 0.0 mm 1032.30 hPa langsam fallend

 

Verlauf: letzte 24h
WIND   Windrose
(Klicke ins Bild, um den Hintergrund abzuschalten)
WIND   Windverkauf 2.5h
TEMP   Temperatur 2.5h
Druck   Luftdruck 2.5h
Regen   Luftdruck 2.5h